Time;durP1;ratioP1;P1;durP2;ratioP2;P2;SDS_P1;SDS_P2;PMS_P1;PMS_P2;Temp;Humidity;BMP_temperature;BMP_pressure;BME280_temperature;BME280_humidity;BME280_pressure;Samples;Min_cycle;Max_cycle;Signal;HPM_P1;HPM_P2
2021/12/30 00:01:22;;;;;;;18.50;6.00;;;10.50;97.70;;;;;;5087940;28;20063;-76
2021/12/30 00:03:50;;;;;;;21.73;6.88;;;10.50;97.70;;;;;;5087442;28;20059;-77
2021/12/30 00:06:21;;;;;;;18.42;6.65;;;10.50;97.70;;;;;;5087273;28;20075;-76
2021/12/30 00:08:50;;;;;;;16.73;6.15;;;10.50;97.70;;;;;;5086200;28;20044;-76
2021/12/30 00:11:18;;;;;;;17.65;7.22;;;10.50;97.70;;;;;;5071229;28;20593;-76
2021/12/30 00:13:45;;;;;;;16.23;5.85;;;10.50;97.70;;;;;;5088183;28;20044;-77
2021/12/30 00:16:13;;;;;;;13.77;6.40;;;10.50;97.70;;;;;;5068938;28;20039;-76
2021/12/30 00:18:42;;;;;;;14.40;6.43;;;10.50;97.70;;;;;;5086980;28;20517;-76
2021/12/30 00:21:10;;;;;;;19.50;7.55;;;10.40;97.70;;;;;;5087780;28;20044;-76
2021/12/30 00:23:38;;;;;;;21.52;8.68;;;10.50;97.80;;;;;;5085439;28;20357;-76
2021/12/30 00:26:05;;;;;;;27.33;8.98;;;10.50;97.80;;;;;;5086599;28;20174;-77
2021/12/30 00:28:33;;;;;;;27.60;8.88;;;10.60;97.80;;;;;;5087889;28;20036;-76
2021/12/30 00:31:00;;;;;;;21.58;9.80;;;10.60;97.80;;;;;;5085824;28;20071;-76
2021/12/30 00:33:27;;;;;;;22.73;9.38;;;10.60;97.70;;;;;;5086121;28;20048;-77
2021/12/30 00:35:55;;;;;;;24.60;9.38;;;10.70;97.70;;;;;;5068292;28;20060;-77
2021/12/30 00:38:22;;;;;;;20.52;9.43;;;10.80;97.70;;;;;;5086968;28;20123;-76
2021/12/30 00:40:49;;;;;;;28.73;11.10;;;10.80;97.70;;;;;;5053787;28;20112;-76
2021/12/30 00:43:17;;;;;;;28.08;10.63;;;10.80;97.60;;;;;;5087265;28;20079;-77
2021/12/30 00:45:46;;;;;;;28.05;9.77;;;10.90;97.70;;;;;;5085709;28;20036;-76
2021/12/30 00:48:16;;;;;;;26.98;10.43;;;10.90;97.60;;;;;;5088376;28;20043;-77
2021/12/30 00:50:47;;;;;;;29.95;10.73;;;11.00;97.60;;;;;;5087032;28;20044;-77
2021/12/30 00:53:15;;;;;;;27.20;11.40;;;11.00;97.60;;;;;;5068522;28;20043;-76
2021/12/30 00:55:42;;;;;;;27.05;10.98;;;11.00;97.60;;;;;;5068495;28;20109;-77
2021/12/30 00:58:10;;;;;;;26.88;11.02;;;11.10;97.60;;;;;;5087411;28;20451;-77
2021/12/30 01:00:39;;;;;;;30.08;12.23;;;11.10;97.50;;;;;;5086145;28;20166;-77
2021/12/30 01:03:08;;;;;;;28.42;10.57;;;11.10;97.50;;;;;;5085463;28;20063;-76
2021/12/30 01:05:36;;;;;;;25.30;8.98;;;11.10;97.50;;;;;;5068430;28;20040;-77
2021/12/30 01:08:04;;;;;;;21.02;9.23;;;11.20;97.50;;;;;;5085784;28;20048;-76
2021/12/30 01:10:31;;;;;;;28.80;8.27;;;11.20;97.50;;;;;;5086409;28;20105;-76
2021/12/30 01:13:04;;;;;;;20.50;8.27;;;11.20;97.50;;;;;;5069397;28;21347;-76
2021/12/30 01:15:45;;;;;;;18.08;7.15;;;11.30;97.50;;;;;;5085658;28;20063;-76
2021/12/30 01:20:50;;;;;;;23.67;8.02;;;11.30;97.50;;;;;;5084209;28;20048;-78
2021/12/30 01:23:17;;;;;;;23.67;7.72;;;11.30;97.50;;;;;;5087468;28;20068;-76
2021/12/30 01:25:46;;;;;;;19.40;6.05;;;11.30;97.50;;;;;;5067300;28;20134;-77
2021/12/30 01:28:13;;;;;;;16.05;6.47;;;11.40;97.50;;;;;;5087400;28;20115;-77
2021/12/30 01:30:40;;;;;;;13.55;4.90;;;11.40;97.40;;;;;;5085488;28;20081;-76
2021/12/30 01:33:08;;;;;;;19.05;5.43;;;11.40;97.40;;;;;;5086931;28;20048;-76
2021/12/30 01:35:35;;;;;;;13.02;4.65;;;11.40;97.40;;;;;;5085320;28;20059;-77
2021/12/30 01:38:02;;;;;;;16.00;5.60;;;11.40;97.40;;;;;;5067583;28;21176;-77
2021/12/30 01:40:30;;;;;;;15.93;5.15;;;11.50;97.40;;;;;;5067796;28;20089;-77
2021/12/30 01:42:57;;;;;;;15.65;5.07;;;11.40;97.40;;;;;;5084816;28;21528;-77
2021/12/30 01:45:25;;;;;;;21.30;6.13;;;11.50;97.40;;;;;;5084721;28;20036;-76
2021/12/30 01:47:54;;;;;;;15.25;4.70;;;11.50;97.40;;;;;;5087091;28;20047;-77
2021/12/30 01:50:23;;;;;;;18.33;5.00;;;11.50;97.40;;;;;;5086004;28;20115;-76
2021/12/30 01:52:50;;;;;;;15.40;5.25;;;11.60;97.40;;;;;;5087415;28;20040;-76
2021/12/30 01:55:19;;;;;;;11.70;4.90;;;11.60;97.40;;;;;;5085403;28;20040;-76
2021/12/30 01:57:50;;;;;;;15.45;5.03;;;11.60;97.40;;;;;;5085959;28;20579;-76
2021/12/30 02:00:22;;;;;;;16.77;5.70;;;11.60;97.40;;;;;;5084707;28;20131;-77
2021/12/30 02:02:50;;;;;;;16.35;7.68;;;11.60;97.40;;;;;;5084300;28;20051;-77
2021/12/30 02:05:17;;;;;;;21.17;6.80;;;11.60;97.40;;;;;;5067351;28;20115;-76
2021/12/30 02:07:45;;;;;;;25.75;6.70;;;11.70;97.40;;;;;;5085093;28;20048;-77
2021/12/30 02:10:14;;;;;;;21.80;7.00;;;11.70;97.40;;;;;;5084874;28;20076;-77
2021/12/30 02:12:42;;;;;;;15.70;6.20;;;11.70;97.40;;;;;;5085876;28;21196;-76
2021/12/30 02:15:12;;;;;;;17.92;7.10;;;11.70;97.30;;;;;;5085879;28;20040;-76
2021/12/30 02:17:39;;;;;;;15.82;6.20;;;11.70;97.30;;;;;;5084738;28;20075;-77
2021/12/30 02:20:12;;;;;;;23.52;6.72;;;11.80;97.30;;;;;;5084850;28;20086;-77
2021/12/30 02:22:39;;;;;;;19.02;7.07;;;11.70;97.30;;;;;;5086281;28;20044;-76
2021/12/30 02:25:07;;;;;;;16.63;6.85;;;11.70;97.30;;;;;;5084948;28;20412;-76
2021/12/30 02:27:34;;;;;;;22.40;6.60;;;11.70;97.30;;;;;;5084336;28;20844;-76
2021/12/30 02:30:01;;;;;;;13.15;5.25;;;11.70;97.30;;;;;;5085056;28;20661;-77
2021/12/30 02:32:28;;;;;;;12.18;5.15;;;11.70;97.30;;;;;;5087215;28;20040;-77
2021/12/30 02:34:55;;;;;;;19.75;6.43;;;11.70;97.30;;;;;;5085062;28;20036;-77
2021/12/30 02:37:22;;;;;;;22.63;6.00;;;11.70;97.30;;;;;;5085610;28;20067;-77
2021/12/30 02:39:54;;;;;;;16.73;6.78;;;11.70;97.40;;;;;;5085287;28;20107;-76
2021/12/30 02:42:24;;;;;;;16.88;6.60;;;11.70;97.40;;;;;;5084599;28;20733;-76
2021/12/30 02:44:52;;;;;;;16.60;6.10;;;11.70;97.40;;;;;;5085644;28;20407;-76
2021/12/30 02:47:19;;;;;;;13.98;4.85;;;11.70;97.40;;;;;;5088170;28;20047;-77
2021/12/30 02:49:46;;;;;;;18.80;6.32;;;11.70;97.40;;;;;;5090641;28;20044;-77
2021/12/30 02:52:33;;;;;;;12.85;6.05;;;11.80;97.40;;;;;;5088657;28;20549;-77
2021/12/30 02:55:00;;;;;;;14.55;6.57;;;11.80;97.40;;;;;;5088779;28;20130;-77
2021/12/30 02:57:27;;;;;;;10.45;4.70;;;11.80;97.40;;;;;;5071966;28;20044;-77
2021/12/30 02:59:54;;;;;;;14.18;5.93;;;11.80;97.40;;;;;;5088932;28;20131;-77
2021/12/30 03:02:21;;;;;;;13.50;4.72;;;11.80;97.40;;;;;;5090064;28;20105;-77
2021/12/30 03:04:48;;;;;;;10.05;3.47;;;11.80;97.50;;;;;;5071093;28;20557;-77
2021/12/30 03:07:18;;;;;;;6.97;3.45;;;11.80;97.50;;;;;;5088045;28;20073;-77
2021/12/30 03:09:45;;;;;;;6.20;2.72;;;11.80;97.50;;;;;;5087934;28;20040;-77
2021/12/30 03:12:13;;;;;;;8.65;2.25;;;11.80;97.50;;;;;;5087614;28;20060;-78
2021/12/30 03:14:41;;;;;;;11.63;2.50;;;11.80;97.50;;;;;;5088123;28;20094;-77
2021/12/30 03:17:09;;;;;;;6.85;2.20;;;11.80;97.50;;;;;;5088422;28;21613;-77
2021/12/30 03:19:36;;;;;;;9.32;3.10;;;11.80;97.50;;;;;;5088270;28;21454;-78
2021/12/30 03:22:03;;;;;;;11.05;2.97;;;11.80;97.50;;;;;;5089661;28;20052;-80
2021/12/30 03:24:30;;;;;;;8.85;2.72;;;11.80;97.50;;;;;;5087620;28;20113;-78
2021/12/30 03:26:57;;;;;;;6.30;2.95;;;11.80;97.50;;;;;;5053726;28;20398;-76
2021/12/30 03:29:24;;;;;;;8.70;2.78;;;11.80;97.50;;;;;;5087847;28;20040;-76
2021/12/30 03:31:52;;;;;;;8.65;3.25;;;11.80;97.50;;;;;;5084943;28;20055;-76
2021/12/30 03:34:19;;;;;;;13.98;4.30;;;11.80;97.50;;;;;;5054026;28;20047;-78
2021/12/30 03:36:46;;;;;;;14.85;5.00;;;11.80;97.50;;;;;;5070234;28;20062;-78
2021/12/30 03:39:14;;;;;;;15.13;4.97;;;11.80;97.50;;;;;;5087299;28;20040;-77
2021/12/30 03:41:41;;;;;;;15.90;4.93;;;11.80;97.50;;;;;;5053369;28;20556;-78
2021/12/30 03:44:08;;;;;;;11.23;4.25;;;11.80;97.50;;;;;;5086442;28;20047;-78
2021/12/30 03:46:38;;;;;;;12.00;5.18;;;11.80;97.50;;;;;;5086564;28;20055;-78
2021/12/30 03:49:06;;;;;;;13.07;4.32;;;11.80;97.50;;;;;;5086852;28;20131;-77
2021/12/30 03:51:38;;;;;;;13.88;4.97;;;11.80;97.50;;;;;;5070615;28;20082;-78
2021/12/30 03:54:08;;;;;;;13.80;5.05;;;11.90;97.50;;;;;;5071022;28;20040;-78
2021/12/30 03:56:35;;;;;;;10.90;4.40;;;11.90;97.60;;;;;;5070237;28;20102;-77
2021/12/30 03:59:03;;;;;;;13.13;4.72;;;11.90;97.80;;;;;;5070167;28;20071;-77
2021/12/30 04:01:31;;;;;;;15.07;4.68;;;11.90;97.50;;;;;;5054383;28;20116;-76
2021/12/30 04:04:00;;;;;;;8.75;3.60;;;11.90;97.50;;;;;;5069682;28;20059;-76
2021/12/30 04:06:28;;;;;;;14.70;5.40;;;11.90;97.60;;;;;;5068775;28;20047;-77
2021/12/30 04:08:57;;;;;;;17.08;7.47;;;11.90;97.60;;;;;;5069636;28;20063;-77
2021/12/30 04:11:33;;;;;;;17.23;6.90;;;11.90;97.60;;;;;;5086927;28;20040;-76
2021/12/30 04:14:02;;;;;;;12.45;5.43;;;11.90;97.60;;;;;;5085724;28;20074;-76
2021/12/30 04:16:30;;;;;;;8.70;4.53;;;11.90;97.60;;;;;;5082084;28;20075;-76
2021/12/30 04:18:57;;;;;;;9.40;4.10;;;11.90;97.60;;;;;;5085605;28;20043;-76
2021/12/30 04:21:25;;;;;;;11.30;5.72;;;11.90;97.60;;;;;;5085535;28;20496;-76
2021/12/30 04:23:52;;;;;;;6.63;3.35;;;12.00;97.60;;;;;;5084637;28;20101;-76
2021/12/30 04:26:26;;;;;;;8.38;3.92;;;12.00;97.60;;;;;;5085863;28;20054;-76
2021/12/30 04:28:53;;;;;;;6.57;3.10;;;12.00;97.60;;;;;;5087508;28;20036;-77
2021/12/30 04:31:21;;;;;;;8.65;3.42;;;12.00;97.60;;;;;;5073275;28;20063;-76
2021/12/30 04:33:48;;;;;;;11.48;3.75;;;12.00;97.60;;;;;;5052404;28;20075;-76
2021/12/30 04:36:15;;;;;;;14.80;6.38;;;12.00;97.60;;;;;;5090952;28;20040;-76
2021/12/30 04:38:42;;;;;;;13.00;5.70;;;12.10;97.60;;;;;;5059732;28;20543;-76
2021/12/30 04:41:09;;;;;;;14.80;6.18;;;12.10;97.70;;;;;;5093072;28;20052;-75
2021/12/30 04:43:36;;;;;;;16.50;6.97;;;12.10;97.60;;;;;;5091636;28;20559;-76
2021/12/30 04:46:03;;;;;;;17.60;7.28;;;12.20;97.70;;;;;;5084661;28;20072;-76
2021/12/30 04:48:31;;;;;;;19.63;7.78;;;12.20;97.60;;;;;;5086444;28;20040;-75
2021/12/30 04:50:58;;;;;;;17.58;7.65;;;12.20;97.70;;;;;;5086505;28;20434;-76
2021/12/30 04:53:27;;;;;;;11.48;5.32;;;12.20;97.60;;;;;;5068548;28;20381;-75
2021/12/30 04:55:54;;;;;;;11.25;5.50;;;12.30;97.60;;;;;;5083625;28;20130;-75
2021/12/30 04:58:21;;;;;;;10.73;4.40;;;12.30;97.60;;;;;;5065534;28;20105;-75
2021/12/30 05:00:48;;;;;;;11.50;5.05;;;12.30;97.60;;;;;;5085191;28;20391;-75
2021/12/30 05:03:16;;;;;;;10.75;5.28;;;12.30;97.70;;;;;;5086094;28;20465;-75
2021/12/30 05:05:49;;;;;;;9.65;4.60;;;12.30;97.70;;;;;;5081767;28;20127;-75
2021/12/30 05:08:20;;;;;;;8.18;4.07;;;12.30;97.70;;;;;;5075497;28;20043;-75
2021/12/30 05:10:49;;;;;;;7.60;3.45;;;12.30;97.70;;;;;;5081729;28;20032;-76
2021/12/30 05:13:17;;;;;;;10.00;4.72;;;12.40;98.00;;;;;;5067690;28;20033;-75
2021/12/30 05:15:47;;;;;;;8.85;3.90;;;12.40;97.70;;;;;;5063347;28;20082;-75
2021/12/30 05:18:19;;;;;;;7.20;3.50;;;12.40;97.70;;;;;;5063550;28;20044;-74
2021/12/30 05:20:46;;;;;;;6.13;2.53;;;12.40;97.70;;;;;;5079952;28;20040;-74
2021/12/30 05:23:13;;;;;;;5.47;2.80;;;12.40;97.70;;;;;;5080632;28;20616;-75
2021/12/30 05:25:40;;;;;;;5.25;2.53;;;12.40;97.70;;;;;;5062217;28;20044;-75
2021/12/30 05:28:10;;;;;;;6.15;2.58;;;12.40;97.70;;;;;;5062902;28;20044;-75
2021/12/30 05:30:37;;;;;;;6.68;3.38;;;12.40;97.70;;;;;;5080812;28;20117;-74
2021/12/30 05:33:05;;;;;;;7.97;3.00;;;12.40;97.70;;;;;;5082579;28;20758;-74
2021/12/30 05:35:32;;;;;;;6.72;2.85;;;12.40;97.70;;;;;;5081065;28;20056;-74
2021/12/30 05:38:01;;;;;;;9.10;3.50;;;12.40;97.80;;;;;;5079420;28;20078;-75
2021/12/30 05:40:29;;;;;;;7.10;3.20;;;12.40;97.70;;;;;;5046968;28;20040;-75
2021/12/30 05:42:56;;;;;;;6.55;2.50;;;12.40;97.70;;;;;;5081905;28;20036;-74
2021/12/30 05:45:23;;;;;;;5.15;2.38;;;12.50;97.80;;;;;;5064383;28;20073;-74
2021/12/30 05:47:51;;;;;;;6.70;2.30;;;12.50;97.80;;;;;;5063846;28;20073;-74
2021/12/30 05:50:23;;;;;;;6.53;1.73;;;12.50;97.80;;;;;;5081845;28;20052;-74
2021/12/30 05:52:51;;;;;;;6.15;1.92;;;12.50;97.80;;;;;;5083174;28;20077;-74
2021/12/30 05:55:18;;;;;;;4.43;1.70;;;12.50;97.80;;;;;;5082348;28;20068;-74
2021/12/30 05:57:46;;;;;;;5.32;2.33;;;12.50;97.80;;;;;;5080192;28;20044;-74
2021/12/30 06:00:15;;;;;;;6.47;2.28;;;12.50;97.80;;;;;;5081437;28;20039;-75
2021/12/30 06:02:43;;;;;;;5.40;2.40;;;12.50;97.80;;;;;;5081914;28;20055;-74
2021/12/30 06:05:11;;;;;;;6.65;3.08;;;12.50;97.80;;;;;;5080433;28;20046;-73
2021/12/30 06:07:40;;;;;;;7.97;4.07;;;12.50;97.80;;;;;;5080077;28;20052;-73
2021/12/30 06:10:07;;;;;;;7.20;4.07;;;12.50;97.90;;;;;;5080913;28;20051;-73
2021/12/30 06:12:34;;;;;;;6.60;4.00;;;12.50;97.90;;;;;;5081695;28;20471;-73
2021/12/30 06:15:02;;;;;;;10.20;5.15;;;12.50;97.90;;;;;;5078483;28;20633;-73
2021/12/30 06:17:29;;;;;;;9.00;5.53;;;12.50;97.90;;;;;;5063780;28;20036;-73
2021/12/30 06:19:56;;;;;;;10.32;5.35;;;12.50;97.90;;;;;;5080251;28;20051;-73
2021/12/30 06:22:25;;;;;;;11.65;6.65;;;12.50;97.90;;;;;;5084752;28;20067;-73
2021/12/30 06:24:52;;;;;;;11.10;5.65;;;12.60;97.90;;;;;;5084664;28;20790;-73
2021/12/30 06:27:19;;;;;;;12.48;7.32;;;12.50;97.90;;;;;;5087275;28;20076;-73
2021/12/30 06:29:46;;;;;;;15.50;9.55;;;12.60;98.00;;;;;;5086075;28;20165;-73
2021/12/30 06:32:13;;;;;;;16.83;9.57;;;12.60;98.00;;;;;;5085025;28;20044;-73
2021/12/30 06:34:40;;;;;;;16.33;8.95;;;12.60;98.00;;;;;;5066724;28;20097;-73
2021/12/30 06:37:07;;;;;;;16.92;9.70;;;12.60;98.00;;;;;;5086480;28;20676;-73
2021/12/30 06:39:34;;;;;;;19.98;11.48;;;12.60;98.00;;;;;;5066830;28;20056;-73
2021/12/30 06:42:02;;;;;;;25.60;15.77;;;12.60;98.00;;;;;;5085280;28;20072;-73
2021/12/30 06:44:29;;;;;;;22.13;13.55;;;12.70;98.10;;;;;;5082962;28;20105;-72
2021/12/30 06:47:00;;;;;;;27.55;16.00;;;12.70;98.10;;;;;;5084830;28;20500;-72
2021/12/30 06:49:35;;;;;;;26.83;15.10;;;12.70;98.10;;;;;;5067825;28;20076;-73
2021/12/30 06:52:07;;;;;;;22.48;13.02;;;12.70;98.10;;;;;;5084999;28;20530;-72
2021/12/30 06:54:35;;;;;;;17.63;10.85;;;12.70;98.10;;;;;;5084642;28;20884;-74
2021/12/30 06:57:03;;;;;;;16.83;8.98;;;12.70;98.10;;;;;;5084317;28;20732;-74
2021/12/30 06:59:31;;;;;;;12.38;8.05;;;12.70;98.10;;;;;;5071222;28;20036;-76
2021/12/30 07:01:58;;;;;;;10.80;7.30;;;12.70;98.10;;;;;;5086332;28;20052;-75
2021/12/30 07:04:26;;;;;;;13.82;5.88;;;12.70;98.10;;;;;;5086508;28;20040;-74
2021/12/30 07:06:53;;;;;;;6.90;4.70;;;12.70;98.10;;;;;;5083661;28;20125;-74
2021/12/30 07:09:20;;;;;;;8.63;5.75;;;12.70;98.10;;;;;;5067852;28;20044;-75
2021/12/30 07:11:50;;;;;;;9.23;4.85;;;12.70;98.10;;;;;;5070664;28;20048;-76
2021/12/30 07:14:18;;;;;;;7.93;4.68;;;12.70;98.10;;;;;;5087797;28;20126;-76
2021/12/30 07:16:46;;;;;;;8.10;4.82;;;12.70;98.10;;;;;;5086652;28;20674;-76
2021/12/30 07:19:14;;;;;;;6.85;4.20;;;12.70;98.10;;;;;;5070479;28;20492;-88
2021/12/30 07:21:42;;;;;;;7.75;4.72;;;12.70;98.10;;;;;;5085941;28;20096;-75
2021/12/30 07:24:11;;;;;;;9.48;4.50;;;12.70;98.10;;;;;;5088842;28;20048;-76
2021/12/30 07:26:38;;;;;;;10.68;4.68;;;12.70;98.10;;;;;;5087981;28;20052;-76
2021/12/30 07:29:08;;;;;;;9.23;4.75;;;12.70;98.10;;;;;;5055374;28;20800;-77
2021/12/30 07:31:35;;;;;;;10.43;5.13;;;12.70;98.10;;;;;;5087770;28;20043;-74
2021/12/30 07:34:02;;;;;;;9.68;6.13;;;12.70;98.10;;;;;;5086125;28;20118;-76
2021/12/30 07:36:29;;;;;;;11.23;6.05;;;12.70;98.10;;;;;;5070520;28;20037;-76
2021/12/30 07:38:57;;;;;;;13.32;6.72;;;12.70;98.10;;;;;;5054136;28;20074;-75
2021/12/30 07:41:26;;;;;;;15.32;9.05;;;12.80;98.10;;;;;;5070555;28;20375;-73
2021/12/30 07:43:53;;;;;;;16.20;8.35;;;12.80;98.10;;;;;;5086334;28;20059;-74
2021/12/30 07:46:20;;;;;;;13.18;8.25;;;12.80;98.10;;;;;;5081971;28;20124;-75
2021/12/30 07:48:47;;;;;;;13.50;8.18;;;12.80;98.10;;;;;;5068348;28;20094;-75
2021/12/30 07:51:14;;;;;;;14.57;8.93;;;12.80;98.10;;;;;;5048140;28;20278;-74
2021/12/30 07:53:41;;;;;;;16.98;10.50;;;12.80;98.10;;;;;;5083691;28;20079;-74
2021/12/30 07:56:08;;;;;;;18.67;11.55;;;12.80;98.10;;;;;;5083237;28;20071;-74
2021/12/30 07:58:35;;;;;;;19.77;10.75;;;12.90;98.20;;;;;;5085561;28;20629;-74
2021/12/30 08:01:03;;;;;;;18.00;10.15;;;12.90;98.10;;;;;;5082405;28;20090;-74
2021/12/30 08:03:30;;;;;;;18.63;11.75;;;12.90;98.10;;;;;;5084989;28;20072;-75
2021/12/30 08:05:57;;;;;;;19.40;11.13;;;12.90;98.10;;;;;;5082220;28;20454;-75
2021/12/30 08:08:24;;;;;;;19.25;11.00;;;12.90;98.10;;;;;;5066675;28;20075;-75
2021/12/30 08:10:51;;;;;;;18.92;11.60;;;12.90;98.10;;;;;;5083307;28;20032;-74
2021/12/30 08:13:18;;;;;;;22.88;12.93;;;13.00;98.10;;;;;;5083550;28;20455;-74
2021/12/30 08:15:46;;;;;;;22.73;12.80;;;13.00;98.10;;;;;;5085696;28;20048;-75
2021/12/30 08:18:14;;;;;;;22.55;12.18;;;13.00;98.10;;;;;;5069710;28;20048;-74
2021/12/30 08:20:41;;;;;;;20.83;10.65;;;13.10;98.10;;;;;;5085371;28;20053;-74
2021/12/30 08:23:08;;;;;;;23.33;11.35;;;13.10;98.10;;;;;;5085164;28;20112;-74
2021/12/30 08:25:35;;;;;;;19.10;10.02;;;13.20;98.10;;;;;;5083715;28;20109;-74
2021/12/30 08:28:02;;;;;;;19.00;10.07;;;13.20;98.10;;;;;;5065377;28;20135;-75
2021/12/30 08:30:30;;;;;;;19.13;9.68;;;13.30;98.10;;;;;;5084556;28;20048;-74
2021/12/30 08:33:00;;;;;;;16.02;8.45;;;13.30;98.10;;;;;;5083469;28;20043;-75
2021/12/30 08:35:27;;;;;;;17.85;8.52;;;13.30;98.00;;;;;;5082656;28;20150;-75
2021/12/30 08:37:54;;;;;;;16.48;8.55;;;13.40;98.00;;;;;;5084455;28;20055;-74
2021/12/30 08:40:21;;;;;;;14.52;8.02;;;13.40;98.00;;;;;;5081909;28;20135;-75
2021/12/30 08:42:49;;;;;;;15.57;8.60;;;13.40;97.90;;;;;;5066089;28;20140;-75
2021/12/30 08:45:17;;;;;;;16.05;8.13;;;13.50;97.90;;;;;;5082077;28;20395;-75
2021/12/30 08:47:45;;;;;;;12.90;7.55;;;13.50;97.90;;;;;;5084546;28;20047;-75
2021/12/30 08:50:14;;;;;;;13.13;7.10;;;13.50;97.80;;;;;;5084118;28;20047;-75
2021/12/30 08:52:43;;;;;;;13.73;7.47;;;13.50;97.80;;;;;;5064576;28;20056;-74
2021/12/30 08:55:11;;;;;;;10.73;7.43;;;13.60;97.70;;;;;;5083156;28;20090;-75
2021/12/30 08:57:42;;;;;;;12.73;7.90;;;13.60;97.70;;;;;;5048953;28;20399;-75
2021/12/30 09:00:31;;;;;;;10.20;6.15;;;13.60;97.60;;;;;;5082997;28;20063;-75
2021/12/30 09:03:04;;;;;;;15.48;7.07;;;13.60;97.60;;;;;;5082613;28;20109;-75
2021/12/30 09:05:33;;;;;;;15.13;8.00;;;13.60;97.60;;;;;;5066487;28;20124;-75
2021/12/30 09:08:01;;;;;;;12.85;7.22;;;13.60;97.50;;;;;;5083198;28;20058;-75
2021/12/30 09:10:34;;;;;;;12.90;7.75;;;13.60;97.50;;;;;;5083110;28;20036;-74
2021/12/30 09:13:01;;;;;;;13.43;8.27;;;13.70;97.40;;;;;;5083656;28;20048;-75
2021/12/30 09:15:29;;;;;;;10.73;7.30;;;13.70;97.30;;;;;;5083764;28;20040;-75
2021/12/30 09:17:57;;;;;;;11.98;8.20;;;13.70;97.30;;;;;;5065798;28;20052;-75
2021/12/30 09:20:24;;;;;;;13.73;7.68;;;13.70;97.20;;;;;;5086069;28;20147;-76
2021/12/30 09:22:52;;;;;;;9.68;6.72;;;13.80;97.10;;;;;;5086021;28;20077;-77
2021/12/30 09:25:23;;;;;;;11.45;7.35;;;13.80;97.10;;;;;;5087233;28;20119;-76
2021/12/30 09:27:55;;;;;;;12.68;6.47;;;13.80;97.10;;;;;;5086053;28;20071;-77
2021/12/30 09:30:29;;;;;;;9.27;6.05;;;13.80;97.10;;;;;;5085878;28;20040;-75
2021/12/30 09:32:58;;;;;;;14.40;7.68;;;13.80;97.10;;;;;;5083936;28;20036;-76
2021/12/30 09:35:26;;;;;;;14.10;6.18;;;13.80;96.90;;;;;;5081657;28;20068;-75
2021/12/30 09:37:53;;;;;;;9.13;5.60;;;13.80;96.90;;;;;;5065725;28;20527;-75
2021/12/30 09:40:21;;;;;;;10.60;5.45;;;13.80;96.90;;;;;;5085010;28;20083;-75
2021/12/30 09:43:00;;;;;;;7.55;4.70;;;13.80;96.90;;;;;;5066509;28;20059;-75
2021/12/30 09:45:31;;;;;;;11.05;3.97;;;13.80;96.90;;;;;;5083934;28;20153;-76
2021/12/30 09:48:00;;;;;;;8.18;4.07;;;13.80;96.90;;;;;;5081041;28;20044;-75
2021/12/30 09:50:31;;;;;;;9.70;3.90;;;13.80;96.90;;;;;;5084230;28;20032;-75
2021/12/30 09:53:00;;;;;;;9.40;3.90;;;13.80;96.80;;;;;;5083418;28;20458;-76
2021/12/30 09:55:29;;;;;;;10.02;3.53;;;13.90;96.80;;;;;;5082933;28;20393;-75
2021/12/30 09:57:57;;;;;;;11.60;4.05;;;13.90;96.70;;;;;;5083430;28;20555;-75
2021/12/30 10:00:25;;;;;;;8.27;3.05;;;13.90;96.70;;;;;;5083968;28;20043;-76
2021/12/30 10:02:52;;;;;;;8.75;3.47;;;14.00;96.70;;;;;;5084618;28;20146;-76
2021/12/30 10:05:24;;;;;;;6.85;3.17;;;14.00;96.70;;;;;;5067811;28;20040;-76
2021/12/30 10:08:26;;;;;;;8.02;3.20;;;14.10;96.50;;;;;;5068660;28;20101;-76
2021/12/30 10:10:58;;;;;;;11.60;3.58;;;14.10;96.50;;;;;;5085217;28;20052;-76
2021/12/30 10:13:31;;;;;;;11.45;2.80;;;14.10;96.40;;;;;;5085183;28;20109;-76
2021/12/30 10:16:13;;;;;;;10.75;3.15;;;14.20;96.40;;;;;;5085486;28;20085;-77
2021/12/30 10:18:45;;;;;;;8.50;2.85;;;14.20;96.30;;;;;;5086399;28;20044;-76
2021/12/30 10:21:15;;;;;;;5.78;1.98;;;14.20;96.30;;;;;;5088339;28;20858;-76
2021/12/30 10:23:49;;;;;;;8.75;2.35;;;14.20;96.30;;;;;;5090395;28;20524;-76
2021/12/30 10:26:17;;;;;;;10.57;2.90;;;14.20;96.30;;;;;;5089192;28;20093;-77
2021/12/30 10:28:47;;;;;;;10.70;2.88;;;14.20;96.30;;;;;;5075795;28;20043;-77
2021/12/30 10:31:18;;;;;;;8.60;2.83;;;14.20;96.20;;;;;;5084883;28;20140;-77
2021/12/30 10:33:51;;;;;;;11.40;2.28;;;14.20;96.20;;;;;;5085147;28;20470;-77
2021/12/30 10:36:34;;;;;;;7.95;2.08;;;14.20;96.10;;;;;;5084159;28;20040;-79
2021/12/30 10:39:18;;;;;;;;;;;14.20;96.10;;;;;;5084432;28;20098;-77
2021/12/30 10:41:49;;;;;;;7.68;2.30;;;14.20;96.10;;;;;;5086186;28;19934;-77
2021/12/30 10:44:18;;;;;;;6.35;2.13;;;14.10;96.10;;;;;;5085239;28;20048;-77
2021/12/30 10:46:53;;;;;;;12.48;3.20;;;14.20;96.10;;;;;;5085960;28;20109;-78
2021/12/30 10:49:22;;;;;;;7.88;3.22;;;14.20;96.00;;;;;;5083914;28;20044;-78
2021/12/30 10:51:52;;;;;;;9.27;3.58;;;14.20;95.80;;;;;;5086517;28;20043;-77
2021/12/30 10:54:19;;;;;;;12.35;4.88;;;14.20;95.70;;;;;;5085072;28;20792;-78
2021/12/30 10:57:08;;;;;;;11.75;4.13;;;14.30;95.80;;;;;;5084976;28;20832;-78
2021/12/30 10:59:51;;;;;;;10.60;4.30;;;14.30;95.50;;;;;;5086048;28;20510;-77
2021/12/30 11:02:26;;;;;;;10.32;4.50;;;14.30;95.50;;;;;;5086238;28;20145;-77
2021/12/30 11:05:00;;;;;;;10.23;4.50;;;14.30;95.40;;;;;;5067779;28;20109;-77
2021/12/30 11:07:50;;;;;;;10.88;4.38;;;14.30;95.40;;;;;;5086685;28;20066;-78
2021/12/30 11:10:32;;;;;;;8.45;4.18;;;14.40;95.30;;;;;;5072210;28;20048;-77
2021/12/30 11:13:10;;;;;;;10.15;4.18;;;14.40;95.30;;;;;;5085537;28;20086;-78
2021/12/30 11:15:38;;;;;;;7.38;3.25;;;14.30;95.30;;;;;;5053917;28;20397;-78
2021/12/30 11:18:16;;;;;;;10.52;4.97;;;14.30;95.30;;;;;;5054494;28;20048;-77
2021/12/30 11:20:47;;;;;;;9.00;4.38;;;14.40;95.10;;;;;;5089749;28;20509;-77
2021/12/30 11:23:16;;;;;;;12.63;4.75;;;14.40;95.10;;;;;;5071571;28;20043;-78
2021/12/30 11:25:44;;;;;;;10.13;4.18;;;14.40;95.00;;;;;;5087554;28;20113;-78
2021/12/30 11:28:12;;;;;;;7.85;3.85;;;14.40;95.00;;;;;;5071893;28;20048;-78
2021/12/30 11:30:39;;;;;;;11.00;4.20;;;14.40;95.00;;;;;;5088474;28;20811;-77
2021/12/30 11:33:06;;;;;;;10.75;3.35;;;14.40;95.00;;;;;;5089771;28;20492;-79
2021/12/30 11:35:33;;;;;;;10.45;3.42;;;14.40;94.90;;;;;;5089107;28;20044;-78
2021/12/30 11:38:01;;;;;;;10.65;4.38;;;14.30;94.90;;;;;;5072623;28;20112;-78
2021/12/30 11:40:28;;;;;;;18.75;4.25;;;14.30;94.80;;;;;;5088324;28;20040;-78
2021/12/30 11:43:12;;;;;;;8.23;3.28;;;14.40;94.70;;;;;;5071271;28;20105;-78
2021/12/30 11:45:44;;;;;;;8.77;3.10;;;14.40;94.70;;;;;;5086068;28;20056;-78
2021/12/30 11:48:25;;;;;;;9.65;3.75;;;14.40;94.70;;;;;;5085301;28;20051;-78
2021/12/30 11:51:03;;;;;;;12.70;2.92;;;14.40;94.70;;;;;;5082392;28;20541;-78
2021/12/30 11:53:30;;;;;;;8.50;2.92;;;14.40;94.70;;;;;;5084009;28;20465;-79
2021/12/30 11:55:57;;;;;;;10.52;2.70;;;14.40;94.80;;;;;;5088390;28;20043;-78
2021/12/30 11:58:32;;;;;;;9.20;3.03;;;14.40;94.80;;;;;;5088021;28;20040;-79
2021/12/30 12:01:16;;;;;;;5.57;2.20;;;14.40;94.80;;;;;;5086282;28;20065;-79
2021/12/30 12:03:54;;;;;;;10.70;2.35;;;14.40;94.80;;;;;;5088801;28;20047;-79
2021/12/30 12:06:48;;;;;;;6.90;1.80;;;14.40;94.80;;;;;;5087247;28;20048;-78
2021/12/30 12:09:25;;;;;;;8.07;2.55;;;14.40;94.90;;;;;;5088094;28;20089;-78
2021/12/30 12:11:58;;;;;;;9.85;2.15;;;14.40;94.80;;;;;;5089680;28;20055;-79
2021/12/30 12:14:31;;;;;;;7.82;2.30;;;14.40;94.80;;;;;;5088454;28;20041;-77
2021/12/30 12:17:09;;;;;;;14.20;3.40;;;14.40;94.70;;;;;;5089118;28;20036;-78
2021/12/30 12:19:40;;;;;;;11.50;2.75;;;14.40;94.70;;;;;;5088252;28;20052;-79
2021/12/30 12:22:25;;;;;;;7.75;2.90;;;14.40;94.70;;;;;;5086808;28;20389;-79
2021/12/30 12:25:07;;;;;;;13.25;3.22;;;14.40;94.60;;;;;;5085167;28;20042;-79
2021/12/30 12:27:37;;;;;;;6.72;2.70;;;14.40;94.60;;;;;;5087164;28;20054;-79
2021/12/30 12:30:07;;;;;;;8.38;3.10;;;14.40;94.60;;;;;;5088302;28;20052;-80
2021/12/30 12:32:39;;;;;;;5.05;3.08;;;14.40;94.50;;;;;;5087374;28;20050;-79
2021/12/30 12:35:21;;;;;;;8.65;2.70;;;14.40;94.50;;;;;;5085892;28;20040;-80
2021/12/30 12:37:59;;;;;;;11.60;2.90;;;14.40;94.50;;;;;;5087283;28;20720;-79
2021/12/30 12:40:37;;;;;;;6.38;2.85;;;14.40;94.50;;;;;;5070443;28;20131;-80
2021/12/30 12:43:11;;;;;;;7.85;3.33;;;14.40;94.50;;;;;;5087376;28;20047;-80
2021/12/30 12:45:49;;;;;;;6.97;2.20;;;14.40;94.40;;;;;;5087971;28;20062;-79
2021/12/30 12:48:17;;;;;;;10.90;3.50;;;14.50;94.40;;;;;;5087012;28;20048;-79
2021/12/30 12:50:55;;;;;;;9.70;3.28;;;14.40;94.30;;;;;;5088340;28;20059;-79
2021/12/30 12:53:28;;;;;;;12.18;2.47;;;14.50;94.30;;;;;;5086713;28;20071;-81